Maral — EFGQ — position and weather

sailwx.info

Track history (hours):
 
Tides and Currents Weather Stations Pressure Air Temp Water Temp Dewpoint Dewpoint Depression Visibility Wind Speed Wind Dir Waves Ship Positions

Maral

Last reported at 2015-Dec-28 09:33 UTC. Time now 2016-May-29 05:50 UTC.
Position N 41°58' W 009°03'.
Warning: this ship's position is months out of date.

Length 30 m; draft 4 m.

Type: Fishing. MMSI: 224544160.

Date/timePositionNaut miles runAvg speedWind from/ knotsBaromVisibWave heightAir tempDewpointWater temp
2015-Dec-28 09:33N 41°58' W 009°03'9 9.0
2015-Dec-28 08:33N 41°49' W 009°08'9 9.1
2015-Dec-28 07:33N 41°41' W 009°13'8 8.3
2015-Dec-28 06:33N 41°33' W 009°18'9 9.0
2015-Dec-28 05:33N 41°25' W 009°22'9 8.6
2015-Dec-28 04:33N 41°17' W 009°27'9 8.3
2015-Dec-28 03:30N 41°09' W 009°32'8 8.7
2015-Dec-28 02:33N 41°02' W 009°36'9 8.4
2015-Dec-28 01:30N 40°54' W 009°41'9 8.8
2015-Dec-28 00:30N 40°46' W 009°46'8 8.5
2015-Dec-27 23:33N 40°38' W 009°50'9 8.7
2015-Dec-27 22:33N 40°30' W 009°55'8 8.3
2015-Dec-27 21:33N 40°23' W 009°60'7 7.5
2015-Dec-27 20:33N 40°16' W 010°04'8 8.0
2015-Dec-27 19:33N 40°09' W 010°08'8 8.0
2015-Dec-27 18:33N 40°01' W 010°12'8 8.1
2015-Dec-27 17:33N 39°54' W 010°16'8 7.9
2015-Dec-27 16:33N 39°47' W 010°20'8 8.2
2015-Dec-27 15:33N 39°39' W 010°24'8 8.0
2015-Dec-27 14:33N 39°32' W 010°29'9 8.5
2015-Dec-27 13:33N 39°24' W 010°33'9 8.1
2015-Dec-27 12:25N 39°16' W 010°38'7 8.0
2015-Dec-27 11:30N 39°09' W 010°41'8 8.4
2015-Dec-27 10:33N 39°01' W 010°45'8 8.0
2015-Dec-27 09:32N 38°54' W 010°49'8 8.2
2015-Dec-27 08:33N 38°46' W 010°52'8 7.6
2015-Dec-27 07:33N 38°39' W 010°55'9 8.8
2015-Dec-27 06:30N 38°30' W 010°59'53 8.5
2015-Dec-27 00:15N 37°42' W 011°27'15 8.1
2015-Dec-26 22:26N 37°28' W 011°34'15 8.2
2015-Dec-26 20:33N 37°14' W 011°40'8 8.2
2015-Dec-26 19:31N 37°06' W 011°44'11 8.3
2015-Dec-26 18:14N 36°56' W 011°49'16 8.1
2015-Dec-26 16:16N 36°41' W 011°57'24 8.4
2015-Dec-26 13:23N 36°19' W 012°09'  
Track history (hours):
 
Tides and Currents Weather Stations Pressure Air Temp Water Temp Dewpoint Dewpoint Depression Visibility Wind Speed Wind Dir Waves Ship Positions

Maral

Last reported at 2015-Dec-28 09:33 UTC. Time now 2016-May-29 05:50 UTC.
Position N 41°58' W 009°03'.
Warning: this ship's position is months out of date.

Length 30 m; draft 4 m.

Type: Fishing. MMSI: 224544160.

Date/timePositionNaut miles runAvg speedWind from/ knotsBaromVisibWave heightAir tempDewpointWater temp
2015-Dec-28 09:33N 41°58' W 009°03'9 9.0
2015-Dec-28 08:33N 41°49' W 009°08'9 9.1
2015-Dec-28 07:33N 41°41' W 009°13'8 8.3
2015-Dec-28 06:33N 41°33' W 009°18'9 9.0
2015-Dec-28 05:33N 41°25' W 009°22'9 8.6
2015-Dec-28 04:33N 41°17' W 009°27'9 8.3
2015-Dec-28 03:30N 41°09' W 009°32'8 8.7
2015-Dec-28 02:33N 41°02' W 009°36'9 8.4
2015-Dec-28 01:30N 40°54' W 009°41'9 8.8
2015-Dec-28 00:30N 40°46' W 009°46'8 8.5
2015-Dec-27 23:33N 40°38' W 009°50'9 8.7
2015-Dec-27 22:33N 40°30' W 009°55'8 8.3
2015-Dec-27 21:33N 40°23' W 009°60'7 7.5
2015-Dec-27 20:33N 40°16' W 010°04'8 8.0
2015-Dec-27 19:33N 40°09' W 010°08'8 8.0
2015-Dec-27 18:33N 40°01' W 010°12'8 8.1
2015-Dec-27 17:33N 39°54' W 010°16'8 7.9
2015-Dec-27 16:33N 39°47' W 010°20'8 8.2
2015-Dec-27 15:33N 39°39' W 010°24'8 8.0
2015-Dec-27 14:33N 39°32' W 010°29'9 8.5
2015-Dec-27 13:33N 39°24' W 010°33'9 8.1
2015-Dec-27 12:25N 39°16' W 010°38'7 8.0
2015-Dec-27 11:30N 39°09' W 010°41'8 8.4
2015-Dec-27 10:33N 39°01' W 010°45'8 8.0
2015-Dec-27 09:32N 38°54' W 010°49'8 8.2
2015-Dec-27 08:33N 38°46' W 010°52'8 7.6
2015-Dec-27 07:33N 38°39' W 010°55'9 8.8
2015-Dec-27 06:30N 38°30' W 010°59'53 8.5
2015-Dec-27 00:15N 37°42' W 011°27'15 8.1
2015-Dec-26 22:26N 37°28' W 011°34'15 8.2
2015-Dec-26 20:33N 37°14' W 011°40'8 8.2
2015-Dec-26 19:31N 37°06' W 011°44'11 8.3
2015-Dec-26 18:14N 36°56' W 011°49'16 8.1
2015-Dec-26 16:16N 36°41' W 011°57'24 8.4
2015-Dec-26 13:23N 36°19' W 012°09'  

Dump ship's entire track history